Time;durP1;ratioP1;P1;durP2;ratioP2;P2;SDS_P1;SDS_P2;PMS_P1;PMS_P2;Temp;Humidity;BMP_temperature;BMP_pressure;BME280_temperature;BME280_humidity;BME280_pressure;Samples;Min_cycle;Max_cycle;Signal;HPM_P1;HPM_P2
2022/09/27 00:01:48;;;;;;;1.80;1.70;;;11.80;99.90;;;;;;5069342;28;20998;-85
2022/09/27 00:04:17;;;;;;;1.93;1.83;;;11.80;1.00;;;;;;5070447;28;20464;-86
2022/09/27 00:06:46;;;;;;;2.10;2.00;;;11.70;1.00;;;;;;5074166;28;20485;-86
2022/09/27 00:09:14;;;;;;;1.60;1.50;;;11.70;1.00;;;;;;5077921;28;20467;-86
2022/09/27 00:11:43;;;;;;;1.77;1.67;;;11.70;99.90;;;;;;5076439;28;20481;-86
2022/09/27 00:14:12;;;;;;;1.90;1.80;;;11.70;99.90;;;;;;5076071;28;20962;-86
2022/09/27 00:16:42;;;;;;;2.03;1.73;;;11.50;99.90;;;;;;5071903;28;21029;-86
2022/09/27 00:19:14;;;;;;;2.00;1.90;;;11.40;1.00;;;;;;5075170;28;20450;-86
2022/09/27 00:21:45;;;;;;;2.03;1.93;;;11.50;99.90;;;;;;5075490;28;20456;-85
2022/09/27 00:24:15;;;;;;;1.70;1.70;;;11.70;99.90;;;;;;5075021;28;20468;-86
2022/09/27 00:26:43;;;;;;;1.90;1.80;;;11.60;99.90;;;;;;5081770;28;20560;-86
2022/09/27 00:29:11;;;;;;;1.90;1.90;;;11.60;99.90;;;;;;5084200;28;20465;-86
2022/09/27 00:31:40;;;;;;;1.73;1.73;;;11.70;99.90;;;;;;5085688;28;20968;-86
2022/09/27 00:34:16;;;;;;;1.77;1.77;;;11.80;99.90;;;;;;5079752;28;20550;-86
2022/09/27 00:36:46;;;;;;;2.87;1.80;;;11.70;99.90;;;;;;5079737;28;22478;-86
2022/09/27 00:39:15;;;;;;;1.80;1.80;;;11.60;1.00;;;;;;5075956;28;20979;-86
2022/09/27 00:41:44;;;;;;;3.13;1.73;;;11.60;1.00;;;;;;5081561;28;20943;-85
2022/09/27 00:44:54;;;;;;;1.73;1.73;;;11.60;99.90;;;;;;5090900;28;20545;-85
2022/09/27 00:47:27;;;;;;;2.20;2.00;;;11.50;1.00;;;;;;5101944;28;20474;-86
2022/09/27 00:50:00;;;;;;;2.10;2.00;;;11.60;99.90;;;;;;5080678;28;20862;-86
2022/09/27 00:52:33;;;;;;;2.00;2.00;;;11.60;28.10;;;;;;5080317;28;20518;-86
2022/09/27 00:55:07;;;;;;;2.00;2.00;;;11.50;99.90;;;;;;5075024;28;20474;-86
2022/09/27 00:57:36;;;;;;;2.00;1.93;;;11.60;1.00;;;;;;5081904;28;20450;-86
2022/09/27 01:00:08;;;;;;;1.90;1.83;;;11.60;99.90;;;;;;5076576;28;20478;-86
2022/09/27 01:02:38;;;;;;;1.87;1.87;;;11.50;1.00;;;;;;5079743;28;20872;-87
2022/09/27 01:05:08;;;;;;;2.30;2.20;;;11.60;99.90;;;;;;5072222;28;20488;-86
2022/09/27 01:07:38;;;;;;;2.13;2.10;;;11.50;1.00;;;;;;5081864;28;20499;-86
2022/09/27 01:10:07;;;;;;;1.90;1.90;;;11.40;1.00;;;;;;5080230;28;20460;-87
2022/09/27 01:12:45;;;;;;;2.47;2.37;;;11.50;1.00;;;;;;5077326;28;20917;-86
2022/09/27 01:15:23;;;;;;;2.30;2.20;;;11.60;1.00;;;;;;5080522;28;20483;-86
2022/09/27 01:18:05;;;;;;;2.20;2.00;;;11.60;99.90;;;;;;5083973;28;21049;-87
2022/09/27 01:21:07;;;;;;;2.40;2.30;;;11.60;99.90;;;;;;5078384;28;20456;-86
2022/09/27 01:24:08;;;;;;;2.50;2.40;;;11.60;99.90;;;;;;5073622;28;20487;-86
2022/09/27 01:27:01;;;;;;;2.53;2.40;;;11.60;1.00;;;;;;5081177;28;20576;-86
2022/09/27 01:29:42;;;;;;;2.10;2.00;;;11.60;1.00;;;;;;5078693;28;20454;-87
2022/09/27 01:32:19;;;;;;;2.00;2.00;;;11.70;99.90;;;;;;5078748;28;20821;-85
2022/09/27 01:34:54;;;;;;;2.00;2.00;;;11.70;99.90;;;;;;5079162;28;20471;-85
2022/09/27 01:37:31;;;;;;;2.20;2.10;;;11.60;1.00;;;;;;5077626;28;20472;-86
2022/09/27 01:40:02;;;;;;;2.30;2.20;;;11.70;99.90;;;;;;5081490;28;20457;-86
2022/09/27 01:42:36;;;;;;;2.57;2.40;;;11.70;99.90;;;;;;5083395;28;20479;-86
2022/09/27 01:45:09;;;;;;;2.50;2.40;;;11.70;1.00;;;;;;5073024;28;20484;-86
2022/09/27 01:47:45;;;;;;;2.67;2.60;;;11.80;99.90;;;;;;5070310;28;20445;-86
2022/09/27 01:50:18;;;;;;;2.80;2.70;;;11.80;99.90;;;;;;5076232;28;20527;-86
2022/09/27 01:52:52;;;;;;;2.23;2.13;;;11.80;99.90;;;;;;5082870;28;20484;-85
2022/09/27 01:55:24;;;;;;;2.13;2.10;;;11.70;99.90;;;;;;5074924;28;20518;-85
2022/09/27 01:57:58;;;;;;;2.30;2.20;;;11.70;99.90;;;;;;5080836;28;20454;-85
2022/09/27 02:00:26;;;;;;;2.30;2.20;;;11.70;99.90;;;;;;5072951;28;20541;-86
2022/09/27 02:03:00;;;;;;;2.60;2.50;;;11.60;99.90;;;;;;5073750;28;20776;-86
2022/09/27 02:05:33;;;;;;;2.53;2.40;;;11.70;1.00;;;;;;5077928;28;20556;-86
2022/09/27 02:08:06;;;;;;;2.60;2.60;;;11.80;99.90;;;;;;5086693;28;21086;-86
2022/09/27 02:10:40;;;;;;;2.97;2.87;;;11.80;99.90;;;;;;5082761;28;20811;-86
2022/09/27 02:13:17;;;;;;;3.00;2.90;;;11.90;99.90;;;;;;5072231;28;20487;-85
2022/09/27 02:15:52;;;;;;;2.73;2.60;;;11.90;14.80;;;;;;5076408;28;20736;-86
2022/09/27 02:18:29;;;;;;;2.83;2.70;;;11.80;1.00;;;;;;5068476;28;20521;-85
2022/09/27 02:21:01;;;;;;;2.87;2.77;;;11.80;99.90;;;;;;5071930;28;20450;-86
2022/09/27 02:23:36;;;;;;;3.27;3.17;;;11.80;99.90;;;;;;5071468;28;20461;-86
2022/09/27 02:26:12;;;;;;;3.20;3.10;;;11.80;99.90;;;;;;5073429;28;20499;-85
2022/09/27 02:28:45;;;;;;;2.60;2.60;;;11.80;99.90;;;;;;5080394;28;20560;-85
2022/09/27 02:31:13;;;;;;;3.37;2.90;;;11.80;1.00;;;;;;5073760;28;20491;-85
2022/09/27 02:33:49;;;;;;;2.70;2.60;;;11.60;1.00;;;;;;5076001;28;20874;-85
2022/09/27 02:36:17;;;;;;;3.53;2.20;;;11.40;1.00;;;;;;5073364;28;20470;-85
2022/09/27 02:38:46;;;;;;;2.20;2.20;;;11.30;99.90;;;;;;5080253;28;20470;-85
2022/09/27 02:41:15;;;;;;;2.00;2.00;;;11.40;99.90;;;;;;5084232;28;20460;-85
2022/09/27 02:43:47;;;;;;;2.03;1.93;;;11.40;1.00;;;;;;5077920;28;20944;-85
2022/09/27 02:46:40;;;;;;;1.73;1.73;;;11.50;1.00;;;;;;5074532;28;20491;-85
2022/09/27 02:49:29;;;;;;;1.87;1.77;;;11.40;29.70;;;;;;5078389;28;20487;-86
2022/09/27 02:52:12;;;;;;;2.10;2.00;;;11.30;99.90;;;;;;5071605;28;20467;-85
2022/09/27 02:54:51;;;;;;;1.77;1.70;;;11.30;1.00;;;;;;5075858;28;21008;-85
2022/09/27 02:57:34;;;;;;;1.60;1.60;;;11.30;99.90;;;;;;5076727;28;20465;-85
2022/09/27 03:00:06;;;;;;;1.80;1.80;;;11.30;1.00;;;;;;5072055;28;21253;-86
2022/09/27 03:02:44;;;;;;;1.50;1.50;;;11.30;99.90;;;;;;5101059;28;20937;-86
2022/09/27 03:05:17;;;;;;;1.70;1.60;;;11.40;99.90;;;;;;5072494;28;20872;-86
2022/09/27 03:07:46;;;;;;;1.40;1.40;;;11.20;1.00;;;;;;5068050;28;20470;-85
2022/09/27 03:10:18;;;;;;;1.50;1.40;;;11.20;1.00;;;;;;5071592;28;20448;-85
2022/09/27 03:12:46;;;;;;;1.43;1.43;;;11.20;1.00;;;;;;5071671;28;21000;-85
2022/09/27 03:15:15;;;;;;;1.80;1.70;;;11.20;1.00;;;;;;5072833;28;20524;-84
2022/09/27 03:17:43;;;;;;;1.40;1.40;;;11.20;1.00;;;;;;5071831;28;20450;-85
2022/09/27 03:20:13;;;;;;;1.73;1.73;;;11.20;1.00;;;;;;5071447;28;20555;-85
2022/09/27 03:22:41;;;;;;;1.83;1.73;;;11.30;1.00;;;;;;5072535;28;20810;-84
2022/09/27 03:25:10;;;;;;;1.97;1.60;;;11.40;99.90;;;;;;5070762;28;20470;-85
2022/09/27 03:27:38;;;;;;;1.97;1.80;;;11.40;99.90;;;;;;5073981;28;20964;-85
2022/09/27 03:30:07;;;;;;;2.07;1.97;;;11.40;1.00;;;;;;5078984;28;20797;-85
2022/09/27 03:32:36;;;;;;;1.70;1.60;;;11.40;99.90;;;;;;5075415;28;20495;-84
2022/09/27 03:35:10;;;;;;;4.00;1.93;;;11.40;99.90;;;;;;5076221;28;20499;-86
2022/09/27 03:37:41;;;;;;;3.00;2.17;;;11.40;1.00;;;;;;5075080;28;20471;-85
2022/09/27 03:40:10;;;;;;;2.37;2.17;;;11.40;1.00;;;;;;5068261;28;20962;-84
2022/09/27 03:42:39;;;;;;;2.97;2.77;;;11.40;99.90;;;;;;5083949;28;20531;-84
2022/09/27 03:45:08;;;;;;;2.87;2.63;;;11.50;99.90;;;;;;5075831;28;20483;-85
2022/09/27 03:47:40;;;;;;;2.43;2.23;;;11.40;99.90;;;;;;5077022;28;20475;-85
2022/09/27 03:50:11;;;;;;;2.07;1.90;;;11.40;1.00;;;;;;5077111;28;20477;-85
2022/09/27 03:52:42;;;;;;;2.07;1.90;;;11.50;1.00;;;;;;5080747;28;20493;-86
2022/09/27 03:55:11;;;;;;;2.93;2.20;;;11.40;99.90;;;;;;5074148;28;21156;-85
2022/09/27 03:57:43;;;;;;;2.00;1.90;;;11.40;1.00;;;;;;5072819;28;20451;-85
2022/09/27 04:00:13;;;;;;;7.73;2.53;;;11.30;1.00;;;;;;5074067;28;20820;-87
2022/09/27 04:02:42;;;;;;;2.27;2.17;;;11.30;99.90;;;;;;5076266;28;20452;-86
2022/09/27 04:05:11;;;;;;;3.63;2.50;;;11.40;1.00;;;;;;5075202;28;20484;-85
2022/09/27 04:07:45;;;;;;;2.80;2.60;;;11.40;1.00;;;;;;5076801;28;20458;-85
2022/09/27 04:10:14;;;;;;;2.13;2.03;;;11.40;99.90;;;;;;5077766;28;21021;-84
2022/09/27 04:12:42;;;;;;;5.43;2.30;;;11.40;99.90;;;;;;5073506;28;20516;-85
2022/09/27 04:15:11;;;;;;;2.87;2.60;;;11.40;1.00;;;;;;5068389;28;20509;-85
2022/09/27 04:17:42;;;;;;;3.73;3.43;;;11.30;99.90;;;;;;5073701;28;20454;-85
2022/09/27 04:20:10;;;;;;;2.90;2.70;;;11.40;98.70;;;;;;5081423;28;20969;-85
2022/09/27 04:22:42;;;;;;;3.70;3.27;;;11.30;1.00;;;;;;5079404;28;21542;-84
2022/09/27 04:25:11;;;;;;;4.30;2.70;;;11.30;34.60;;;;;;5072766;28;20473;-85
2022/09/27 04:27:44;;;;;;;3.00;2.70;;;11.30;1.00;;;;;;5082949;28;20541;-84
2022/09/27 04:30:13;;;;;;;3.33;3.13;;;11.30;99.90;;;;;;5070238;28;21427;-86
2022/09/27 04:32:42;;;;;;;3.00;2.80;;;11.20;99.90;;;;;;5078754;28;20793;-85
2022/09/27 04:37:59;;;;;;;2.37;2.27;;;11.30;1.00;;;;;;5069204;28;20467;-82
2022/09/27 04:40:27;;;;;;;2.57;2.37;;;11.40;99.90;;;;;;5073836;28;20458;-82
2022/09/27 04:42:56;;;;;;;2.23;2.13;;;11.60;1.00;;;;;;5073585;28;20450;-85
2022/09/27 04:45:25;;;;;;;3.03;2.80;;;11.60;1.00;;;;;;5070755;28;20478;-85
2022/09/27 04:47:53;;;;;;;3.60;3.37;;;11.60;1.00;;;;;;5072029;28;20458;-84
2022/09/27 04:50:22;;;;;;;2.63;2.40;;;11.40;1.00;;;;;;5071038;28;20449;-85
2022/09/27 04:52:52;;;;;;;4.20;3.10;;;11.30;1.00;;;;;;5079789;28;20455;-84
2022/09/27 04:55:22;;;;;;;2.30;2.20;;;11.40;1.00;;;;;;5074890;28;20471;-85
2022/09/27 04:57:51;;;;;;;2.50;2.30;;;11.40;1.00;;;;;;5074080;28;20463;-85
2022/09/27 05:00:20;;;;;;;2.30;2.10;;;11.40;99.90;;;;;;5068714;28;20566;-85
2022/09/27 05:02:48;;;;;;;2.93;2.13;;;11.30;1.00;;;;;;5079201;28;20448;-82
2022/09/27 05:05:17;;;;;;;3.03;2.17;;;11.40;99.90;;;;;;5070983;28;20560;-84
2022/09/27 05:07:45;;;;;;;2.10;1.93;;;11.20;99.90;;;;;;5088962;28;20492;-85
2022/09/27 05:10:14;;;;;;;2.00;1.90;;;11.40;99.90;;;;;;5076511;28;20446;-84
2022/09/27 05:12:44;;;;;;;1.90;1.80;;;11.40;1.00;;;;;;5079207;28;20455;-85
2022/09/27 05:15:12;;;;;;;2.10;2.00;;;11.30;1.00;;;;;;5077776;28;20489;-84
2022/09/27 05:17:40;;;;;;;1.83;1.80;;;11.20;1.00;;;;;;5074599;28;20557;-84
2022/09/27 05:20:10;;;;;;;1.90;1.80;;;11.30;10.70;;;;;;5076785;28;20462;-85
2022/09/27 05:22:40;;;;;;;1.80;1.70;;;11.30;1.00;;;;;;5074777;28;20830;-84
2022/09/27 05:25:09;;;;;;;2.00;1.90;;;11.30;1.00;;;;;;5074920;28;20859;-85
2022/09/27 05:27:37;;;;;;;2.10;1.90;;;11.30;1.00;;;;;;5085264;28;20501;-84
2022/09/27 05:30:08;;;;;;;2.13;2.00;;;11.30;99.90;;;;;;5072046;28;20456;-85
2022/09/27 05:32:40;;;;;;;2.33;1.80;;;11.30;99.90;;;;;;5078412;28;20445;-83
2022/09/27 05:35:09;;;;;;;2.03;1.93;;;11.40;1.00;;;;;;5067315;28;20484;-86
2022/09/27 05:37:37;;;;;;;2.53;2.37;;;11.30;99.90;;;;;;5082620;28;20483;-85
2022/09/27 05:40:07;;;;;;;2.80;2.40;;;11.30;99.90;;;;;;5070049;28;20949;-84
2022/09/27 05:42:56;;;;;;;2.67;2.47;;;11.20;99.90;;;;;;5072202;28;21222;-86
2022/09/27 05:45:26;;;;;;;2.40;2.10;;;11.20;99.90;;;;;;5076672;28;20903;-85
2022/09/27 05:47:56;;;;;;;2.30;2.10;;;11.30;99.90;;;;;;5074273;28;20505;-86
2022/09/27 05:50:25;;;;;;;1.90;1.80;;;11.20;1.00;;;;;;5076965;28;20518;-85
2022/09/27 05:52:54;;;;;;;2.10;2.00;;;11.20;99.90;;;;;;5075317;28;20555;-85
2022/09/27 05:55:23;;;;;;;1.73;1.70;;;11.30;99.90;;;;;;5072701;28;20857;-86
2022/09/27 05:57:56;;;;;;;2.10;2.00;;;11.20;99.90;;;;;;5081130;28;20464;-84
2022/09/27 06:00:27;;;;;;;2.00;1.90;;;11.10;1.00;;;;;;5069793;28;20465;-86
2022/09/27 06:02:57;;;;;;;1.80;1.70;;;11.10;1.00;;;;;;5069227;28;20518;-86
2022/09/27 06:05:28;;;;;;;2.20;2.10;;;11.20;99.90;;;;;;5071934;28;20478;-85
2022/09/27 06:08:00;;;;;;;1.87;1.83;;;11.20;99.90;;;;;;5068850;28;20470;-85
2022/09/27 06:10:30;;;;;;;3.27;2.13;;;11.20;99.90;;;;;;5074189;28;20473;-86
2022/09/27 06:13:02;;;;;;;2.00;1.90;;;11.30;53.40;;;;;;5076234;28;20485;-86
2022/09/27 06:15:33;;;;;;;1.83;1.73;;;11.20;8.00;;;;;;5084224;28;21073;-86
2022/09/27 06:18:05;;;;;;;1.87;1.70;;;11.10;99.90;;;;;;5077813;28;20465;-86
2022/09/27 06:20:33;;;;;;;1.60;1.60;;;11.30;1.00;;;;;;5075725;28;20454;-85
2022/09/27 06:23:10;;;;;;;1.87;1.77;;;11.20;1.00;;;;;;5069962;28;20449;-85
2022/09/27 06:25:39;;;;;;;1.73;1.63;;;11.10;1.00;;;;;;5078991;28;20487;-86
2022/09/27 06:28:09;;;;;;;1.63;1.63;;;11.10;8.40;;;;;;5076052;28;20471;-86
2022/09/27 06:30:41;;;;;;;1.70;1.60;;;11.10;1.00;;;;;;5079699;28;20454;-86
2022/09/27 06:33:12;;;;;;;1.60;1.60;;;11.10;99.90;;;;;;5074876;28;20508;-86
2022/09/27 06:35:44;;;;;;;1.40;1.30;;;11.20;99.90;;;;;;5083157;28;20500;-87
2022/09/27 06:38:14;;;;;;;2.40;1.80;;;11.10;99.90;;;;;;5074805;28;21147;-86
2022/09/27 06:40:44;;;;;;;1.40;1.40;;;11.00;1.00;;;;;;5073125;28;20464;-86
2022/09/27 06:43:14;;;;;;;1.30;1.30;;;11.10;99.90;;;;;;5068686;28;20450;-86
2022/09/27 06:45:44;;;;;;;1.83;1.60;;;11.20;99.90;;;;;;5081301;28;20470;-86
2022/09/27 06:48:14;;;;;;;1.50;1.40;;;11.10;1.00;;;;;;5070348;28;20971;-85
2022/09/27 06:50:45;;;;;;;1.40;1.40;;;11.10;1.00;;;;;;5066446;28;20449;-85
2022/09/27 06:53:15;;;;;;;1.63;1.63;;;11.20;1.00;;;;;;5074055;28;20609;-86
2022/09/27 06:55:44;;;;;;;2.40;2.20;;;11.20;1.00;;;;;;5075570;28;20878;-85
2022/09/27 07:01:00;;;;;;;1.47;1.40;;;11.30;1.00;;;;;;5071831;28;20445;-86
2022/09/27 07:03:31;;;;;;;1.20;1.20;;;11.40;99.90;;;;;;5069192;28;21008;-86
2022/09/27 07:06:10;;;;;;;1.40;1.40;;;11.50;91.60;;;;;;5080728;28;20465;-85
2022/09/27 07:08:38;;;;;;;1.20;1.20;;;11.30;1.00;;;;;;5070896;28;20851;-85
2022/09/27 07:11:10;;;;;;;1.20;1.20;;;11.20;1.00;;;;;;5075482;28;20462;-86
2022/09/27 07:13:41;;;;;;;1.43;1.33;;;11.40;1.00;;;;;;5072147;28;20948;-86
2022/09/27 07:16:13;;;;;;;1.80;1.70;;;11.50;5.30;;;;;;5078190;28;20638;-85
2022/09/27 07:18:42;;;;;;;1.40;1.40;;;11.50;35.50;;;;;;5081838;28;20831;-85
2022/09/27 07:21:11;;;;;;;1.33;1.23;;;11.50;1.00;;;;;;5082180;28;20477;-85
2022/09/27 07:23:40;;;;;;;1.20;1.20;;;11.50;1.00;;;;;;5077361;28;20461;-85
2022/09/27 07:26:10;;;;;;;2.00;1.30;;;11.40;1.00;;;;;;5078738;28;20470;-85
2022/09/27 07:28:40;;;;;;;2.00;1.30;;;11.30;1.00;;;;;;5077402;28;20458;-85
2022/09/27 07:31:09;;;;;;;1.27;1.20;;;11.40;1.00;;;;;;5072509;28;20457;-85
2022/09/27 07:33:39;;;;;;;1.33;1.30;;;11.30;1.00;;;;;;5078551;28;20447;-85
2022/09/27 07:36:12;;;;;;;1.37;1.37;;;11.30;1.00;;;;;;5082428;28;20483;-85
2022/09/27 07:38:40;;;;;;;1.50;1.40;;;11.30;34.10;;;;;;5077334;28;20457;-86
2022/09/27 07:41:12;;;;;;;1.40;1.40;;;11.30;1.00;;;;;;5070480;28;20968;-86
2022/09/27 07:43:42;;;;;;;1.43;1.43;;;11.30;1.00;;;;;;5076377;28;20457;-86
2022/09/27 07:46:12;;;;;;;1.40;1.40;;;11.20;1.00;;;;;;5066067;28;20478;-86
2022/09/27 07:48:42;;;;;;;1.40;1.40;;;11.40;1.00;;;;;;5072191;28;20452;-86
2022/09/27 07:51:10;;;;;;;1.40;1.30;;;11.40;1.00;;;;;;5075384;28;20922;-85
2022/09/27 07:53:39;;;;;;;1.40;1.30;;;11.40;1.00;;;;;;5075216;28;20496;-85
2022/09/27 07:56:08;;;;;;;2.40;1.57;;;11.40;1.00;;;;;;5073871;28;20483;-86
2022/09/27 07:58:36;;;;;;;1.60;1.50;;;11.50;1.00;;;;;;5075004;28;20949;-86
2022/09/27 08:01:06;;;;;;;1.60;1.50;;;11.60;1.00;;;;;;5074748;28;20839;-86
2022/09/27 08:03:35;;;;;;;1.30;1.30;;;11.80;1.00;;;;;;5073081;28;20946;-86
2022/09/27 08:06:04;;;;;;;1.20;1.20;;;11.80;1.00;;;;;;5074612;28;21000;-86
2022/09/27 08:08:33;;;;;;;1.30;1.30;;;11.80;1.00;;;;;;5083830;28;20816;-86
2022/09/27 08:11:01;;;;;;;1.60;1.50;;;11.80;1.00;;;;;;5076128;28;20507;-87
2022/09/27 08:13:29;;;;;;;1.30;1.30;;;12.20;1.00;;;;;;5080523;28;20453;-85
2022/09/27 08:16:02;;;;;;;1.30;1.30;;;12.60;1.00;;;;;;5074626;28;20479;-86
2022/09/27 08:18:30;;;;;;;1.27;1.27;;;12.90;1.00;;;;;;5073236;28;20490;-86
2022/09/27 08:21:00;;;;;;;1.20;1.20;;;13.10;99.90;;;;;;5076906;28;20835;-86
2022/09/27 08:23:30;;;;;;;1.10;1.10;;;12.90;99.90;;;;;;5068044;28;20897;-85
2022/09/27 08:25:58;;;;;;;1.10;1.10;;;12.80;99.90;;;;;;5071455;28;20462;-84
2022/09/27 08:28:27;;;;;;;1.30;1.30;;;12.70;99.90;;;;;;5069445;28;20458;-85
2022/09/27 08:30:58;;;;;;;1.20;1.20;;;12.40;99.90;;;;;;5075768;28;20446;-86
2022/09/27 08:33:26;;;;;;;1.70;1.33;;;12.20;99.90;;;;;;5075927;28;20452;-86
2022/09/27 08:36:00;;;;;;;1.40;1.40;;;12.20;1.00;;;;;;5080264;28;21325;-84
2022/09/27 08:38:30;;;;;;;3.53;3.30;;;12.30;1.00;;;;;;5079588;28;20510;-86
2022/09/27 08:41:03;;;;;;;1.27;1.27;;;12.10;1.00;;;;;;5076844;28;20561;-86
2022/09/27 08:43:37;;;;;;;2.53;1.43;;;12.00;1.00;;;;;;5078626;28;20455;-86
2022/09/27 08:46:20;;;;;;;1.73;1.20;;;11.80;1.00;;;;;;5078143;28;20582;-86
2022/09/27 08:48:53;;;;;;;1.20;1.20;;;11.80;1.00;;;;;;5083727;28;20450;-86
2022/09/27 08:51:25;;;;;;;1.30;1.30;;;12.00;1.00;;;;;;5076210;28;21018;-87
2022/09/27 08:54:01;;;;;;;1.30;1.20;;;13.80;99.90;;;;;;5085245;28;20533;-86
2022/09/27 08:56:29;;;;;;;1.20;1.20;;;13.40;99.90;;;;;;5075876;28;20992;-82
2022/09/27 08:59:04;;;;;;;1.20;1.17;;;13.10;99.90;;;;;;5067107;28;20530;-81
2022/09/27 09:01:34;;;;;;;1.20;1.20;;;13.30;99.90;;;;;;5081528;28;20460;-80
2022/09/27 09:04:04;;;;;;;1.20;1.20;;;13.70;99.90;;;;;;5079989;28;20548;-81
2022/09/27 09:06:39;;;;;;;1.33;1.23;;;14.00;99.90;;;;;;5074721;28;20471;-81
2022/09/27 09:09:21;;;;;;;1.10;1.07;;;14.20;99.90;;;;;;5083585;28;20520;-81
2022/09/27 09:15:14;;;;;;;1.23;1.23;;;16.10;99.90;;;;;;5078172;28;20980;-82
2022/09/27 09:17:55;;;;;;;1.10;1.10;;;16.80;99.90;;;;;;5082525;28;20459;-81
2022/09/27 09:20:35;;;;;;;2.50;1.20;;;17.10;99.90;;;;;;5084999;28;20450;-81
2022/09/27 09:23:22;;;;;;;1.13;1.13;;;17.80;99.90;;;;;;5084009;28;20538;-82
2022/09/27 09:26:00;;;;;;;1.07;1.07;;;17.80;99.90;;;;;;5097144;28;21077;-82
2022/09/27 09:28:43;;;;;;;1.10;1.10;;;19.70;99.90;;;;;;5082565;28;20461;-81
2022/09/27 09:31:24;;;;;;;1.50;1.40;;;20.60;99.90;;;;;;5079924;28;20874;-83
2022/09/27 09:33:57;;;;;;;1.17;1.00;;;19.20;99.90;;;;;;5076168;28;20507;-80
2022/09/27 09:36:30;;;;;;;1.13;1.13;;;19.50;99.90;;;;;;5081839;28;20485;-81
2022/09/27 09:39:03;;;;;;;1.60;1.13;;;19.70;99.90;;;;;;5085327;28;20637;-82
2022/09/27 09:41:38;;;;;;;2.23;2.10;;;21.00;99.90;;;;;;5086321;28;20464;-87
2022/09/27 09:44:16;;;;;;;1.30;1.20;;;19.10;99.90;;;;;;5082966;28;20448;-88
2022/09/27 09:46:47;;;;;;;2.20;1.20;;;17.80;99.90;;;;;;5083123;28;20481;-87
2022/09/27 09:49:20;;;;;;;1.70;1.60;;;17.20;99.90;;;;;;5086989;28;20505;-89
2022/09/27 09:51:51;;;;;;;1.20;1.20;;;17.30;99.90;;;;;;5078421;28;20444;-88
2022/09/27 09:54:24;;;;;;;1.43;1.30;;;17.60;99.90;;;;;;5091752;28;20465;-87
2022/09/27 09:57:02;;;;;;;4.10;2.07;;;17.80;99.90;;;;;;5087208;28;20512;-87
2022/09/27 09:59:36;;;;;;;1.40;1.30;;;18.90;99.90;;;;;;5078870;28;20978;-87
2022/09/27 10:02:20;;;;;;;1.10;1.10;;;20.20;99.90;;;;;;5086143;28;20949;-88
2022/09/27 10:04:48;;;;;;;2.20;1.27;;;20.60;99.90;;;;;;5076252;28;20458;-88
2022/09/27 10:07:22;;;;;;;1.83;1.20;;;20.60;99.90;;;;;;5086951;28;20974;-87
2022/09/27 10:09:51;;;;;;;1.10;1.00;;;18.60;99.90;;;;;;5087501;28;20454;-87
2022/09/27 10:12:20;;;;;;;1.10;1.00;;;17.90;99.90;;;;;;5090733;28;20982;-87
2022/09/27 10:14:50;;;;;;;1.30;1.20;;;17.40;99.90;;;;;;5086767;28;20544;-87
2022/09/27 10:17:23;;;;;;;1.33;1.00;;;16.70;99.90;;;;;;5089571;28;20531;-88
2022/09/27 10:19:53;;;;;;;2.40;1.30;;;16.20;99.90;;;;;;5081814;28;21079;-88
2022/09/27 10:22:27;;;;;;;1.33;1.20;;;15.60;99.90;;;;;;5090588;28;20469;-88
2022/09/27 10:24:58;;;;;;;1.10;1.10;;;15.10;99.90;;;;;;5078474;28;20485;-87
2022/09/27 10:27:28;;;;;;;1.00;1.00;;;14.90;99.90;;;;;;5090281;28;20457;-88
2022/09/27 10:29:58;;;;;;;1.07;1.07;;;14.80;99.90;;;;;;5086294;28;21036;-87
2022/09/27 10:32:30;;;;;;;2.07;1.57;;;14.70;99.90;;;;;;5080125;28;20461;-88
2022/09/27 10:35:19;;;;;;;1.03;1.00;;;14.60;99.90;;;;;;5083598;28;20501;-86
2022/09/27 10:37:52;;;;;;;2.13;1.47;;;14.50;99.90;;;;;;5076638;28;20604;-87
2022/09/27 10:40:27;;;;;;;1.43;1.33;;;14.50;99.90;;;;;;5085096;28;20469;-88
2022/09/27 10:42:57;;;;;;;1.40;1.30;;;14.40;99.90;;;;;;5093344;28;20578;-87
2022/09/27 10:45:29;;;;;;;2.10;1.70;;;14.10;99.90;;;;;;5084807;28;20545;-87
2022/09/27 10:47:59;;;;;;;1.80;1.30;;;14.50;99.90;;;;;;5082269;28;21028;-87
2022/09/27 10:50:29;;;;;;;2.80;1.27;;;14.50;99.90;;;;;;5092729;28;20453;-87
2022/09/27 10:53:20;;;;;;;1.40;1.30;;;14.40;99.90;;;;;;5082428;28;20547;-88
2022/09/27 10:55:51;;;;;;;1.73;1.30;;;14.10;99.90;;;;;;5084785;28;21071;-88
2022/09/27 10:58:27;;;;;;;2.27;1.53;;;13.80;99.90;;;;;;5083545;28;20447;-87
2022/09/27 11:00:57;;;;;;;1.80;1.40;;;13.60;99.90;;;;;;5088897;28;20438;-87
2022/09/27 11:03:27;;;;;;;1.00;1.00;;;13.70;99.90;;;;;;5077081;28;20510;-87
2022/09/27 11:05:58;;;;;;;1.20;1.10;;;13.90;99.90;;;;;;5080009;28;20533;-87
2022/09/27 11:08:31;;;;;;;1.10;1.00;;;17.00;99.90;;;;;;5076154;28;20996;-82
2022/09/27 11:11:06;;;;;;;0.90;0.90;;;18.40;99.90;;;;;;5080020;28;20460;-87
2022/09/27 11:13:36;;;;;;;2.27;1.13;;;17.40;99.90;;;;;;5081447;28;20450;-86
2022/09/27 11:16:41;;;;;;;1.10;1.00;;;16.40;99.90;;;;;;5074535;28;20561;-87
2022/09/27 11:19:31;;;;;;;1.80;1.10;;;16.00;99.90;;;;;;5074444;28;20454;-88
2022/09/27 11:22:08;;;;;;;2.73;1.07;;;15.80;99.90;;;;;;5080006;28;20504;-87
2022/09/27 11:24:54;;;;;;;0.87;0.87;;;15.80;99.90;;;;;;5085656;28;20461;-87
2022/09/27 11:27:33;;;;;;;1.23;1.10;;;15.30;99.90;;;;;;5077809;28;20495;-86
2022/09/27 11:30:11;;;;;;;1.43;1.00;;;14.90;99.90;;;;;;5079372;28;20545;-87
2022/09/27 11:33:00;;;;;;;1.10;1.10;;;14.40;99.90;;;;;;5080876;28;20514;-87
2022/09/27 11:35:45;;;;;;;1.50;1.40;;;14.20;99.90;;;;;;5075248;28;20488;-86
2022/09/27 11:38:23;;;;;;;1.20;1.10;;;14.30;99.90;;;;;;5079946;28;20473;-87
2022/09/27 11:41:28;;;;;;;1.50;1.40;;;14.40;99.90;;;;;;5073624;28;20460;-86
2022/09/27 11:44:24;;;;;;;3.07;1.27;;;14.50;99.90;;;;;;5087230;28;20463;-87
2022/09/27 11:47:06;;;;;;;1.70;1.33;;;14.50;99.90;;;;;;5076223;28;20469;-87
2022/09/27 11:50:03;;;;;;;1.40;1.30;;;14.30;99.90;;;;;;5082867;28;20483;-87
2022/09/27 11:52:47;;;;;;;1.10;1.10;;;14.30;99.90;;;;;;5075619;28;20474;-88
2022/09/27 11:55:23;;;;;;;1.50;1.30;;;14.00;99.90;;;;;;5078090;28;20537;-88
2022/09/27 11:57:59;;;;;;;2.90;2.10;;;13.90;99.90;;;;;;5077705;28;20491;-87
2022/09/27 12:00:36;;;;;;;1.40;1.40;;;13.90;99.90;;;;;;5073819;28;20454;-86
2022/09/27 12:03:49;;;;;;;1.20;1.20;;;13.80;99.90;;;;;;5079688;28;20457;-87
2022/09/27 12:06:22;;;;;;;5.97;1.70;;;13.80;99.90;;;;;;5077676;28;20994;-88
2022/09/27 12:09:01;;;;;;;1.57;1.47;;;13.70;99.90;;;;;;5078013;28;20438;-88
2022/09/27 12:11:37;;;;;;;1.70;1.60;;;13.60;99.90;;;;;;5080952;28;20538;-87
2022/09/27 12:14:09;;;;;;;3.50;2.27;;;13.70;99.90;;;;;;5079825;28;20532;-88
2022/09/27 12:16:40;;;;;;;2.20;1.30;;;13.60;99.90;;;;;;5075479;28;20479;-87
2022/09/27 12:19:17;;;;;;;1.20;1.20;;;13.50;99.90;;;;;;5082895;28;20447;-87
2022/09/27 12:21:45;;;;;;;1.20;1.20;;;13.40;99.90;;;;;;5084601;28;20451;-88
2022/09/27 12:24:20;;;;;;;1.40;1.30;;;13.30;99.90;;;;;;5080613;28;20465;-87
2022/09/27 12:26:52;;;;;;;1.67;1.57;;;13.40;99.90;;;;;;5087117;28;20473;-87
2022/09/27 12:29:24;;;;;;;1.10;1.10;;;13.40;99.90;;;;;;5092171;28;20501;-87
2022/09/27 12:31:59;;;;;;;1.47;1.37;;;13.20;99.90;;;;;;5083269;28;20453;-86
2022/09/27 12:34:37;;;;;;;1.40;1.30;;;13.40;99.90;;;;;;5090500;28;20452;-88
2022/09/27 12:37:12;;;;;;;1.53;1.43;;;13.20;99.90;;;;;;5085704;28;21013;-88
2022/09/27 12:39:50;;;;;;;3.27;1.60;;;13.20;99.90;;;;;;5090640;28;20486;-88
2022/09/27 12:42:22;;;;;;;1.60;1.50;;;13.20;1.00;;;;;;5081912;28;20462;-88
2022/09/27 12:44:52;;;;;;;1.73;1.63;;;13.10;1.00;;;;;;5092524;28;20514;-87
2022/09/27 12:47:42;;;;;;;1.47;1.37;;;13.10;1.00;;;;;;5095401;28;20462;-86
2022/09/27 12:50:22;;;;;;;1.70;1.60;;;13.20;1.00;;;;;;5083795;28;20463;-86
2022/09/27 12:52:58;;;;;;;1.77;1.67;;;13.20;1.00;;;;;;5091467;28;21083;-87
2022/09/27 12:56:04;;;;;;;1.40;1.40;;;13.10;99.90;;;;;;5086860;28;20476;-87
2022/09/27 12:59:09;;;;;;;1.50;1.50;;;13.20;99.90;;;;;;5089490;28;21054;-88
2022/09/27 13:01:58;;;;;;;1.27;1.27;;;13.20;99.90;;;;;;5082645;28;20945;-88
2022/09/27 13:04:48;;;;;;;1.60;1.50;;;13.20;99.90;;;;;;5078416;28;20917;-87
2022/09/27 13:07:33;;;;;;;2.73;1.60;;;13.10;99.90;;;;;;5083052;28;20451;-86
2022/09/27 13:10:30;;;;;;;1.50;1.40;;;13.30;1.00;;;;;;5086274;28;20488;-87
2022/09/27 13:13:00;;;;;;;2.20;1.50;;;13.20;1.00;;;;;;5083526;28;20859;-87
2022/09/27 13:15:31;;;;;;;1.30;1.30;;;12.90;1.00;;;;;;5081018;28;20572;-87
2022/09/27 13:18:02;;;;;;;2.00;1.30;;;12.90;99.90;;;;;;5086862;28;20466;-88
2022/09/27 13:20:43;;;;;;;1.20;1.20;;;13.00;1.00;;;;;;5077454;28;20458;-87
2022/09/27 13:23:57;;;;;;;1.30;1.20;;;12.90;1.00;;;;;;5081271;28;20452;-87
2022/09/27 13:26:50;;;;;;;1.30;1.30;;;13.00;1.00;;;;;;5080859;28;20475;-86
2022/09/27 13:29:29;;;;;;;1.50;1.40;;;13.10;1.00;;;;;;5082106;28;20493;-87
2022/09/27 13:32:23;;;;;;;1.40;1.40;;;13.10;1.00;;;;;;5079972;28;20651;-87
2022/09/27 13:34:55;;;;;;;1.30;1.30;;;13.20;1.00;;;;;;5078859;28;20467;-88